Time;durP1;ratioP1;P1;durP2;ratioP2;P2;SDS_P1;SDS_P2;PMS_P1;PMS_P2;Temp;Humidity;BMP_temperature;BMP_pressure;BME280_temperature;BME280_humidity;BME280_pressure;Samples;Min_cycle;Max_cycle;Signal;HPM_P1;HPM_P2
2021/11/25 00:00:54;;;;;;;15.43;9.80;;;;;;;3.71;98.98;100758.03;5042435;28;20215;-76
2021/11/25 00:03:22;;;;;;;14.73;10.63;;;;;;;3.71;98.68;100755.44;5040932;28;20226;-76
2021/11/25 00:05:49;;;;;;;15.67;10.97;;;;;;;3.70;98.46;100750.28;5040388;28;20223;-76
2021/11/25 00:08:15;;;;;;;15.77;11.20;;;;;;;3.68;97.46;100754.56;5044579;28;20222;-77
2021/11/25 00:10:42;;;;;;;15.20;11.13;;;;;;;3.67;95.77;100758.00;5040307;28;20748;-76
2021/11/25 00:13:09;;;;;;;17.37;11.43;;;;;;;3.68;98.37;100760.59;5045557;28;20234;-76
2021/11/25 00:15:35;;;;;;;15.43;11.30;;;;;;;3.64;96.12;100757.97;5042859;28;20230;-77
2021/11/25 00:18:01;;;;;;;17.90;12.60;;;;;;;3.63;94.21;100761.44;5044325;28;20229;-77
2021/11/25 00:20:30;;;;;;;16.77;11.67;;;;;;;3.63;95.67;100753.69;5041633;28;20211;-78
2021/11/25 00:22:57;;;;;;;15.57;11.27;;;;;;;3.59;96.06;100750.25;5044014;28;20222;-78
2021/11/25 00:25:23;;;;;;;17.27;11.70;;;;;;;3.55;94.96;100762.25;5043444;28;20211;-77
2021/11/25 00:27:50;;;;;;;17.33;12.43;;;;;;;3.54;95.36;100760.53;5044246;28;20195;-78
2021/11/25 00:30:17;;;;;;;16.97;11.90;;;;;;;3.51;94.64;100757.91;5044472;28;20681;-78
2021/11/25 00:32:44;;;;;;;18.73;12.90;;;;;;;3.53;95.38;100760.50;5045611;28;20767;-78
2021/11/25 00:35:12;;;;;;;19.17;12.90;;;;;;;3.51;95.34;100752.75;5041788;28;20206;-78
2021/11/25 00:37:41;;;;;;;19.40;11.80;;;;;;;3.49;94.80;100754.47;5041720;28;20246;-78
2021/11/25 00:40:11;;;;;;;16.53;12.27;;;;;;;3.46;94.47;100751.88;5043287;28;20204;-77
2021/11/25 00:42:37;;;;;;;17.10;12.13;;;;;;;3.46;94.85;100749.28;5042551;28;20343;-78
2021/11/25 00:45:05;;;;;;;18.10;12.67;;;;;;;3.44;93.65;100745.00;5044556;28;20199;-78
2021/11/25 00:47:32;;;;;;;15.90;11.73;;;;;;;3.42;94.40;100732.97;5041683;28;20245;-78
2021/11/25 00:49:58;;;;;;;18.83;12.23;;;;;;;3.39;93.61;100738.13;5045374;28;20296;-78
2021/11/25 00:52:26;;;;;;;19.13;13.53;;;;;;;3.39;93.33;100737.22;5040268;28;20235;-77
2021/11/25 00:54:54;;;;;;;19.90;13.80;;;;;;;3.38;94.31;100741.53;5046408;28;20210;-78
2021/11/25 00:57:21;;;;;;;19.07;13.63;;;;;;;3.36;94.20;100732.94;5040759;28;20210;-77
2021/11/25 00:59:47;;;;;;;17.93;12.73;;;;;;;3.34;93.53;100737.22;5042007;28;20215;-78
2021/11/25 01:02:14;;;;;;;19.30;12.47;;;;;;;3.33;93.18;100730.34;5040986;28;20237;-77
2021/11/25 01:04:40;;;;;;;18.20;12.67;;;;;;;3.33;94.07;100727.75;5045083;28;20211;-78
2021/11/25 01:07:07;;;;;;;20.90;13.03;;;;;;;3.32;93.39;100727.75;5041973;28;20201;-77
2021/11/25 01:09:33;;;;;;;19.00;12.90;;;;;;;3.32;94.15;100722.59;5041063;28;20218;-78
2021/11/25 01:12:02;;;;;;;19.07;13.07;;;;;;;3.29;93.70;100713.16;5040428;28;20218;-76
2021/11/25 01:14:28;;;;;;;17.67;13.40;;;;;;;3.29;93.14;100712.25;5044046;28;20928;-76
2021/11/25 01:16:55;;;;;;;19.27;12.80;;;;;;;3.26;93.74;100707.97;5042689;28;20207;-76
2021/11/25 01:19:21;;;;;;;18.17;12.53;;;;;;;3.25;93.84;100706.22;5042239;28;20220;-76
2021/11/25 01:21:48;;;;;;;16.60;12.03;;;;;;;3.23;92.93;100711.38;5041731;28;20882;-76
2021/11/25 01:24:14;;;;;;;18.97;12.87;;;;;;;3.23;93.45;100700.22;5043857;28;20571;-76
2021/11/25 01:26:41;;;;;;;18.27;13.30;;;;;;;3.22;94.12;100688.19;5041535;28;20204;-76
2021/11/25 01:29:10;;;;;;;17.57;12.63;;;;;;;3.20;93.47;100683.03;5043549;28;20203;-76
2021/11/25 01:31:37;;;;;;;18.57;13.13;;;;;;;3.18;93.33;100683.88;5042726;28;20300;-75
2021/11/25 01:34:04;;;;;;;18.67;13.03;;;;;;;3.17;93.39;100677.00;5042429;28;20199;-76
2021/11/25 01:36:30;;;;;;;18.83;13.23;;;;;;;3.17;94.05;100677.88;5043861;28;20203;-76
2021/11/25 01:38:57;;;;;;;21.37;14.37;;;;;;;3.14;92.96;100675.25;5039669;28;20224;-76
2021/11/25 01:41:23;;;;;;;17.87;12.80;;;;;;;3.15;94.31;100666.69;5042050;28;20684;-76
2021/11/25 01:43:50;;;;;;;19.50;13.53;;;;;;;3.14;95.12;100654.66;5040957;28;20701;-76
2021/11/25 01:46:19;;;;;;;16.93;12.07;;;;;;;3.12;95.22;100656.38;5043225;28;20198;-76
2021/11/25 01:48:47;;;;;;;18.80;13.23;;;;;;;3.10;94.30;100646.91;5040439;28;20217;-76
2021/11/25 01:51:14;;;;;;;21.00;13.67;;;;;;;3.09;94.53;100648.59;5043378;28;20214;-78
2021/11/25 01:53:41;;;;;;;19.50;13.03;;;;;;;3.09;94.70;100650.34;5039909;28;20630;-78
2021/11/25 01:56:08;;;;;;;17.37;13.00;;;;;;;3.08;96.16;100641.75;5042328;28;20207;-77
2021/11/25 01:58:35;;;;;;;21.57;13.57;;;;;;;3.07;95.63;100632.28;5037519;28;20672;-76
2021/11/25 02:01:06;;;;;;;19.63;14.00;;;;;;;3.06;96.30;100633.16;5043258;28;20211;-78
2021/11/25 02:03:34;;;;;;;19.37;13.47;;;;;;;3.06;97.66;100617.69;5039336;28;20743;-77
2021/11/25 02:06:00;;;;;;;18.90;13.20;;;;;;;3.03;96.70;100608.22;5039418;28;20207;-77
2021/11/25 02:08:27;;;;;;;17.20;11.97;;;;;;;3.01;96.08;100609.94;5023342;28;20203;-78
2021/11/25 02:10:55;;;;;;;19.80;13.67;;;;;;;3.00;96.04;100608.22;5040908;28;20209;-76
2021/11/25 02:13:22;;;;;;;19.27;13.63;;;;;;;3.00;95.68;100600.47;5040170;28;20314;-75
2021/11/25 02:15:49;;;;;;;19.70;14.07;;;;;;;2.99;95.33;100593.63;5040917;28;20215;-78
2021/11/25 02:18:17;;;;;;;20.47;13.83;;;;;;;3.00;94.44;100597.06;5025532;28;20563;-78
2021/11/25 02:20:48;;;;;;;19.90;14.23;;;;;;;3.01;96.59;100588.47;5040335;28;20206;-78
2021/11/25 02:23:16;;;;;;;21.33;14.77;;;;;;;3.00;96.77;100579.88;5043878;28;20225;-79
2021/11/25 02:25:43;;;;;;;20.73;13.47;;;;;;;2.99;96.38;100572.13;5041659;28;20214;-78
2021/11/25 02:28:09;;;;;;;19.00;13.43;;;;;;;2.99;97.53;100559.25;5043474;28;20202;-78
2021/11/25 02:30:37;;;;;;;22.10;14.23;;;;;;;3.00;97.85;100555.84;5039466;28;20210;-78
2021/11/25 02:33:03;;;;;;;19.83;14.10;;;;;;;2.97;96.64;100556.69;5044771;28;20901;-78
2021/11/25 02:35:33;;;;;;;22.90;14.97;;;;;;;2.97;96.48;100553.25;5041735;28;20450;-78
2021/11/25 02:38:01;;;;;;;20.10;13.47;;;;;;;2.95;95.13;100550.66;5042328;28;20203;-76
2021/11/25 02:40:32;;;;;;;18.83;13.23;;;;;;;2.96;95.60;100551.53;5038844;28;20200;-76
2021/11/25 02:43:00;;;;;;;20.07;13.87;;;;;;;2.96;96.41;100546.38;5039326;28;20255;-76
2021/11/25 02:45:29;;;;;;;21.70;14.87;;;;;;;2.96;95.62;100542.09;5041260;28;20213;-76
2021/11/25 02:47:56;;;;;;;22.07;14.67;;;;;;;2.95;95.51;100531.78;5040961;28;20214;-76
2021/11/25 02:50:25;;;;;;;19.23;14.10;;;;;;;2.94;94.65;100527.50;5036384;28;20200;-76
2021/11/25 02:52:53;;;;;;;20.40;14.40;;;;;;;2.93;94.78;100530.91;5040696;28;20231;-76
2021/11/25 02:55:21;;;;;;;19.53;13.47;;;;;;;2.95;97.28;100521.47;5039503;28;20819;-76
2021/11/25 02:57:48;;;;;;;20.90;14.93;;;;;;;2.93;97.61;100518.03;5040816;28;20211;-75
2021/11/25 03:00:29;;;;;;;23.47;15.03;;;;;;;2.91;95.09;100517.19;5042204;28;20617;-76
2021/11/25 03:02:56;;;;;;;19.10;12.80;;;;;;;2.94;97.47;100512.91;5041886;28;20237;-76
2021/11/25 03:05:22;;;;;;;20.90;14.20;;;;;;;2.92;97.15;100509.47;5044777;28;20211;-76
2021/11/25 03:07:49;;;;;;;21.50;14.57;;;;;;;2.95;99.57;100503.44;5043114;28;20223;-76
2021/11/25 03:10:15;;;;;;;21.13;14.60;;;;;;;2.91;98.09;100506.88;5044837;28;20199;-75
2021/11/25 03:12:43;;;;;;;20.00;13.47;;;;;;;2.96;99.75;100497.44;5041978;28;20223;-76
2021/11/25 03:15:09;;;;;;;23.57;16.07;;;;;;;2.92;97.91;100493.13;5045761;28;20218;-76
2021/11/25 03:17:37;;;;;;;21.60;14.30;;;;;;;2.91;97.94;100502.56;5042743;28;20794;-76
2021/11/25 03:20:05;;;;;;;23.73;15.80;;;;;;;2.92;98.22;100498.28;5046023;28;20748;-76
2021/11/25 03:22:31;;;;;;;20.50;14.30;;;;;;;2.93;99.83;100493.13;5042470;28;20235;-76
2021/11/25 03:24:58;;;;;;;21.57;15.23;;;;;;;2.90;98.22;100494.84;5045638;28;20206;-76
2021/11/25 03:27:24;;;;;;;21.60;13.73;;;;;;;2.89;97.93;100496.56;5041157;28;20218;-75
2021/11/25 03:29:52;;;;;;;22.33;14.47;;;;;;;2.88;97.50;100481.09;5044678;28;20223;-76
2021/11/25 03:32:18;;;;;;;23.93;15.23;;;;;;;2.88;98.54;100481.09;5039964;28;20737;-76
2021/11/25 03:34:45;;;;;;;24.70;15.73;;;;;;;2.84;97.80;100483.66;5042226;28;20218;-76
2021/11/25 03:37:11;;;;;;;22.33;15.57;;;;;;;2.83;97.15;100487.09;5042831;28;20680;-76
2021/11/25 03:39:37;;;;;;;22.70;15.80;;;;;;;2.82;95.80;100479.38;5042686;28;20231;-76
2021/11/25 03:42:04;;;;;;;23.73;15.60;;;;;;;2.79;95.66;100487.09;5040499;28;20624;-76
2021/11/25 03:44:31;;;;;;;24.57;14.53;;;;;;;2.70;95.82;100469.88;5045204;28;20704;-77
2021/11/25 03:46:58;;;;;;;21.30;13.47;;;;;;;2.62;96.98;100466.41;5044467;28;20191;-75
2021/11/25 03:49:25;;;;;;;21.63;14.63;;;;;;;2.46;94.28;100461.22;5041393;28;20199;-75
2021/11/25 03:51:51;;;;;;;20.23;13.00;;;;;;;2.38;94.19;100457.75;5043556;28;20479;-76
2021/11/25 03:54:18;;;;;;;18.47;12.37;;;;;;;2.32;94.89;100457.69;5024158;28;20702;-76
2021/11/25 03:56:44;;;;;;;19.73;12.93;;;;;;;2.23;97.70;100455.09;5042616;28;20199;-75
2021/11/25 03:59:10;;;;;;;17.97;12.57;;;;;;;2.21;100.00;100436.22;5041212;28;20753;-75
2021/11/25 04:01:37;;;;;;;19.30;12.60;;;;;;;2.11;100.00;100429.31;5029167;28;20223;-76
2021/11/25 04:04:06;;;;;;;18.93;12.67;;;;;;;2.01;100.00;100434.41;5043189;28;20222;-76
2021/11/25 04:06:32;;;;;;;20.27;12.77;;;;;;;1.93;100.00;100432.63;5045180;28;20201;-79
2021/11/25 04:08:58;;;;;;;18.07;12.00;;;;;;;1.92;100.00;100429.22;5045501;28;20294;-78
2021/11/25 04:11:25;;;;;;;20.17;13.27;;;;;;;1.82;100.00;100430.00;5046434;28;20208;-78
2021/11/25 04:13:51;;;;;;;21.13;13.93;;;;;;;1.78;100.00;100426.56;5045672;28;20657;-78
2021/11/25 04:16:18;;;;;;;21.37;13.57;;;;;;;1.74;100.00;100421.38;5045122;28;20208;-78
2021/11/25 04:18:44;;;;;;;23.23;13.90;;;;;;;1.75;100.00;100421.38;5042121;28;20211;-78
2021/11/25 04:21:12;;;;;;;22.03;14.93;;;;;;;1.73;100.00;100409.38;5046493;28;20203;-78
2021/11/25 04:23:38;;;;;;;20.63;14.27;;;;;;;1.67;100.00;100402.47;5044476;28;20219;-78
2021/11/25 04:26:05;;;;;;;21.07;14.07;;;;;;;1.71;100.00;100399.09;5046356;28;20214;-78
2021/11/25 04:28:31;;;;;;;24.13;13.70;;;;;;;1.66;100.00;100390.47;5044494;28;20303;-78
2021/11/25 04:36:28;;;;;;;24.30;14.03;;;;;;;1.62;100.00;100391.28;5044657;28;20302;-78
2021/11/25 04:38:55;;;;;;;27.07;15.97;;;;;;;1.63;100.00;100385.31;5042230;28;20212;-78
2021/11/25 04:41:21;;;;;;;23.43;15.43;;;;;;;1.61;100.00;100384.44;5045551;28;20689;-78
2021/11/25 04:43:47;;;;;;;27.00;17.10;;;;;;;1.60;100.00;100382.72;5044581;28;20215;-78
2021/11/25 04:46:14;;;;;;;28.43;16.47;;;;;;;1.56;100.00;100393.84;5045841;28;20227;-78
2021/11/25 04:48:41;;;;;;;23.43;15.33;;;;;;;1.68;100.00;100381.06;5046687;28;20209;-78
2021/11/25 04:51:08;;;;;;;28.03;17.10;;;;;;;1.66;100.00;100380.19;5046258;28;20210;-78
2021/11/25 04:53:35;;;;;;;24.97;15.87;;;;;;;1.57;100.00;100386.13;5044803;28;20650;-78
2021/11/25 04:56:02;;;;;;;25.20;15.27;;;;;;;1.63;100.00;100381.03;5045773;28;20206;-78
2021/11/25 04:58:28;;;;;;;27.30;17.63;;;;;;;1.60;100.00;100383.59;5047274;28;20242;-78
2021/11/25 05:00:54;;;;;;;24.27;16.23;;;;;;;1.63;100.00;100381.03;5044599;28;20219;-79
2021/11/25 05:03:21;;;;;;;25.03;16.27;;;;;;;1.66;100.00;100390.47;5044763;28;20905;-78
2021/11/25 05:05:47;;;;;;;21.23;14.97;;;;;;;1.72;100.00;100380.22;5044368;28;20203;-78
2021/11/25 05:08:14;;;;;;;24.10;15.43;;;;;;;1.73;100.00;100391.38;5045716;28;20203;-78
2021/11/25 05:10:42;;;;;;;21.07;14.07;;;;;;;1.77;100.00;100393.97;5039794;28;20705;-78
2021/11/25 05:13:09;;;;;;;22.80;15.03;;;;;;;1.78;100.00;100392.28;5045759;28;20222;-78
2021/11/25 05:15:35;;;;;;;23.83;14.40;;;;;;;1.80;100.00;100394.00;5042815;28;20201;-79
2021/11/25 05:18:01;;;;;;;25.00;14.07;;;;;;;1.83;100.00;100394.03;5046450;28;20204;-78
2021/11/25 05:20:28;;;;;;;22.60;14.53;;;;;;;1.83;100.00;100388.88;5041662;28;20223;-77
2021/11/25 05:22:54;;;;;;;21.10;14.00;;;;;;;1.87;100.00;100382.88;5043039;28;20223;-78
2021/11/25 05:25:23;;;;;;;21.83;13.73;;;;;;;1.85;100.00;100389.75;5041446;28;20787;-78
2021/11/25 05:27:51;;;;;;;20.27;13.80;;;;;;;1.85;100.00;100386.31;5044415;28;20207;-78
2021/11/25 05:30:19;;;;;;;20.60;13.90;;;;;;;1.88;100.00;100391.44;5038013;28;20252;-79
2021/11/25 05:32:46;;;;;;;21.40;13.97;;;;;;;1.89;100.00;100381.19;5043447;28;20229;-78
2021/11/25 05:35:14;;;;;;;20.67;14.27;;;;;;;1.94;100.00;100376.06;5043452;28;20324;-78
2021/11/25 05:37:41;;;;;;;19.37;13.73;;;;;;;1.91;100.00;100378.63;5038987;28;20668;-78
2021/11/25 05:40:09;;;;;;;22.07;13.33;;;;;;;1.93;100.00;100376.06;5040927;28;20218;-78
2021/11/25 05:42:36;;;;;;;20.97;13.73;;;;;;;1.89;100.00;100373.47;5042920;28;20231;-75
2021/11/25 05:45:04;;;;;;;20.50;13.03;;;;;;;1.92;100.00;100369.19;5044768;28;20195;-79
2021/11/25 05:47:33;;;;;;;22.80;13.80;;;;;;;1.91;100.00;100370.91;5042655;28;20290;-76
2021/11/25 05:50:00;;;;;;;25.00;14.07;;;;;;;1.92;100.00;100356.34;5042248;28;20286;-78
2021/11/25 05:52:26;;;;;;;24.70;13.60;;;;;;;1.94;100.00;100350.34;5042349;28;20643;-78
2021/11/25 05:54:54;;;;;;;22.67;13.50;;;;;;;1.91;100.00;100349.50;5043271;28;20203;-78
2021/11/25 05:57:20;;;;;;;18.53;13.00;;;;;;;1.87;100.00;100357.19;5041057;28;20938;-78
2021/11/25 05:59:46;;;;;;;20.37;12.00;;;;;;;1.92;100.00;100349.50;5040949;28;20227;-78
2021/11/25 06:02:15;;;;;;;28.23;19.50;;;;;;;1.88;100.00;100347.75;5040165;28;20231;-78
2021/11/25 06:04:42;;;;;;;83.03;39.00;;;;;;;1.86;100.00;100342.59;5040958;28;20226;-78
2021/11/25 06:07:09;;;;;;;204.97;90.77;;;;;;;1.86;100.00;100341.75;5039604;28;20211;-78
2021/11/25 06:09:37;;;;;;;205.70;97.17;;;;;;;1.84;100.00;100348.59;5041469;28;20284;-78
2021/11/25 06:12:05;;;;;;;78.97;40.73;;;;;;;1.87;100.00;100343.47;5042111;28;20221;-78
2021/11/25 06:14:32;;;;;;;39.87;20.87;;;;;;;1.82;100.00;100347.72;5046260;28;20207;-77
2021/11/25 06:16:58;;;;;;;29.53;17.97;;;;;;;1.82;100.00;100345.16;5044445;28;20238;-77
2021/11/25 06:19:26;;;;;;;36.03;22.40;;;;;;;1.81;99.55;100346.00;5046198;28;20217;-76
2021/11/25 06:21:52;;;;;;;41.20;23.93;;;;;;;1.84;100.00;100343.44;5041731;28;20662;-78
2021/11/25 06:24:19;;;;;;;24.13;15.17;;;;;;;1.80;99.71;100340.00;5045514;28;20294;-77
2021/11/25 06:26:49;;;;;;;22.47;14.63;;;;;;;1.80;100.00;100334.00;5041748;28;20207;-78
2021/11/25 06:29:16;;;;;;;32.80;20.70;;;;;;;1.76;99.86;100343.41;5043849;28;20213;-78
2021/11/25 06:31:42;;;;;;;33.17;19.03;;;;;;;1.79;100.00;100332.28;5042521;28;20203;-78
2021/11/25 06:34:09;;;;;;;19.87;12.67;;;;;;;1.75;99.13;100333.13;5042860;28;20302;-78
2021/11/25 06:36:38;;;;;;;18.13;11.90;;;;;;;1.73;99.61;100327.97;5042062;28;20293;-78
2021/11/25 06:39:04;;;;;;;16.63;11.27;;;;;;;1.74;100.00;100323.69;5042943;28;20221;-78
2021/11/25 06:41:31;;;;;;;19.77;11.43;;;;;;;1.73;100.00;100324.56;5042176;28;20203;-78
2021/11/25 06:43:58;;;;;;;18.13;11.17;;;;;;;1.69;100.00;100321.09;5043904;28;20237;-78
2021/11/25 06:46:24;;;;;;;18.50;11.77;;;;;;;1.69;100.00;100316.81;5043057;28;20225;-78
2021/11/25 06:48:51;;;;;;;19.27;12.17;;;;;;;1.63;100.00;100319.34;5042423;28;21395;-78
2021/11/25 06:51:17;;;;;;;15.90;11.47;;;;;;;1.67;100.00;100323.66;5023665;28;20608;-77
2021/11/25 06:53:46;;;;;;;16.63;11.50;;;;;;;1.66;100.00;100316.78;5044434;28;20219;-77
2021/11/25 06:56:12;;;;;;;16.63;11.93;;;;;;;1.67;100.00;100312.50;5042011;28;20207;-78
2021/11/25 06:58:39;;;;;;;21.33;13.00;;;;;;;1.67;100.00;100318.53;5039447;28;20760;-78
2021/11/25 07:01:07;;;;;;;19.73;13.00;;;;;;;1.67;100.00;100318.53;5045838;28;20227;-77
2021/11/25 07:03:34;;;;;;;18.00;12.13;;;;;;;1.69;100.00;100319.38;5042528;28;20449;-77
2021/11/25 07:06:01;;;;;;;18.07;11.50;;;;;;;1.73;100.00;100317.69;5046650;28;20744;-78
2021/11/25 07:08:27;;;;;;;19.27;12.30;;;;;;;1.74;99.83;100318.53;5045019;28;20207;-77
2021/11/25 07:10:56;;;;;;;17.23;11.50;;;;;;;1.77;99.84;100314.28;5045510;28;20204;-77
2021/11/25 07:13:22;;;;;;;19.80;12.60;;;;;;;1.79;100.00;100315.13;5042394;28;20262;-78
2021/11/25 07:15:48;;;;;;;20.13;13.00;;;;;;;1.79;100.00;100314.28;5045158;28;20892;-78
2021/11/25 07:18:15;;;;;;;20.57;13.20;;;;;;;1.80;100.00;100311.72;5040784;28;20203;-78
2021/11/25 07:20:41;;;;;;;24.30;14.83;;;;;;;1.80;100.00;100301.44;5043969;28;20242;-78
2021/11/25 07:23:08;;;;;;;20.47;13.47;;;;;;;1.82;100.00;100304.88;5045749;28;20284;-78
2021/11/25 07:25:34;;;;;;;21.70;13.37;;;;;;;1.83;100.00;100303.16;5031175;28;20211;-77
2021/11/25 07:28:02;;;;;;;20.73;13.30;;;;;;;1.83;100.00;100296.31;5042614;28;20205;-78
2021/11/25 07:30:28;;;;;;;20.37;12.27;;;;;;;1.86;100.00;100296.31;5044803;28;20765;-78
2021/11/25 07:32:55;;;;;;;18.50;12.30;;;;;;;1.84;100.00;100295.44;5042053;28;20579;-78
2021/11/25 07:35:23;;;;;;;20.33;12.40;;;;;;;1.85;100.00;100298.91;5043044;28;20203;-78
2021/11/25 07:37:51;;;;;;;22.23;11.70;;;;;;;1.87;100.00;100292.06;5043957;28;20203;-77
2021/11/25 07:40:18;;;;;;;19.77;12.93;;;;;;;1.88;100.00;100296.31;5043747;28;20299;-77
2021/11/25 07:42:44;;;;;;;43.53;31.37;;;;;;;1.89;100.00;100296.34;5042649;28;20231;-77
2021/11/25 07:45:13;;;;;;;31.33;21.10;;;;;;;1.89;100.00;100296.34;5048423;28;20230;-77
2021/11/25 07:47:39;;;;;;;28.87;19.27;;;;;;;1.92;100.00;100294.63;5046540;28;20211;-78
2021/11/25 07:50:08;;;;;;;25.27;17.00;;;;;;;1.93;100.00;100286.91;5048559;28;20307;-78
2021/11/25 07:52:35;;;;;;;20.97;14.70;;;;;;;1.88;100.00;100281.78;5045948;28;20237;-78
2021/11/25 07:55:01;;;;;;;22.47;14.60;;;;;;;1.89;100.00;100280.91;5047572;28;20233;-77
2021/11/25 07:57:27;;;;;;;31.10;18.27;;;;;;;1.88;100.00;100286.03;5047449;28;20511;-77
2021/11/25 07:59:54;;;;;;;24.47;15.60;;;;;;;1.88;100.00;100298.91;5047880;28;20516;-78
2021/11/25 08:02:23;;;;;;;24.90;15.07;;;;;;;1.84;100.00;100298.03;5047847;28;20752;-78
2021/11/25 08:04:50;;;;;;;24.27;14.77;;;;;;;1.86;100.00;100298.03;5045893;28;20254;-77
2021/11/25 08:07:16;;;;;;;25.43;15.40;;;;;;;1.87;100.00;100292.06;5049341;28;20685;-78
2021/11/25 08:09:44;;;;;;;24.00;14.73;;;;;;;1.88;100.00;100292.06;5046585;28;21285;-78
2021/11/25 08:12:10;;;;;;;26.83;15.73;;;;;;;1.88;100.00;100288.59;5047375;28;20247;-78
2021/11/25 08:14:37;;;;;;;25.33;16.17;;;;;;;1.88;100.00;100281.78;5043571;28;20211;-78
2021/11/25 08:17:03;;;;;;;23.63;15.17;;;;;;;1.93;100.00;100268.91;5046189;28;20207;-78
2021/11/25 08:19:31;;;;;;;25.17;15.97;;;;;;;1.91;100.00;100273.19;5046162;28;20215;-78
2021/11/25 08:21:57;;;;;;;28.87;16.53;;;;;;;1.95;100.00;100284.34;5047257;28;20219;-78
2021/11/25 08:24:25;;;;;;;36.70;21.97;;;;;;;1.98;99.83;100279.22;5045294;28;20208;-77
2021/11/25 08:26:52;;;;;;;42.47;26.30;;;;;;;2.02;100.00;100280.94;5046316;28;20221;-77
2021/11/25 08:29:18;;;;;;;32.40;18.90;;;;;;;2.00;100.00;100278.38;5047522;28;20279;-78
2021/11/25 08:31:44;;;;;;;30.23;18.10;;;;;;;2.03;100.00;100269.81;5046563;28;20206;-77
2021/11/25 08:34:11;;;;;;;33.13;19.17;;;;;;;2.02;100.00;100275.81;5047701;28;20198;-77
2021/11/25 08:36:38;;;;;;;31.57;19.10;;;;;;;1.99;100.00;100276.66;5045884;28;20218;-78
2021/11/25 08:39:05;;;;;;;41.43;20.47;;;;;;;1.99;100.00;100274.09;5046287;28;20815;-78
2021/11/25 08:41:32;;;;;;;40.63;20.70;;;;;;;1.99;100.00;100273.25;5046826;28;20318;-78
2021/11/25 08:43:58;;;;;;;37.23;19.70;;;;;;;2.00;100.00;100269.81;5048441;28;20195;-78
2021/11/25 08:46:25;;;;;;;28.60;17.90;;;;;;;1.98;100.00;100271.50;5047981;28;20209;-78
2021/11/25 08:48:51;;;;;;;36.23;20.10;;;;;;;1.98;100.00;100269.78;5047459;28;20204;-77
2021/11/25 08:51:18;;;;;;;27.50;17.90;;;;;;;1.99;100.00;100263.81;5047674;28;20286;-78
2021/11/25 08:53:45;;;;;;;28.93;17.47;;;;;;;1.97;100.00;100269.78;5045036;28;20719;-78
2021/11/25 08:56:12;;;;;;;27.90;16.73;;;;;;;1.97;100.00;100267.22;5047015;28;20208;-78
2021/11/25 08:58:39;;;;;;;29.23;17.07;;;;;;;1.97;100.00;100262.94;5046823;28;20211;-78
2021/11/25 09:01:07;;;;;;;33.30;19.00;;;;;;;1.99;100.00;100262.97;5042875;28;20684;-77
2021/11/25 09:03:33;;;;;;;27.63;16.80;;;;;;;2.01;100.00;100269.81;5049070;28;20502;-78
2021/11/25 09:06:00;;;;;;;29.07;17.67;;;;;;;2.02;100.00;100268.97;5045220;28;20204;-78
2021/11/25 09:08:28;;;;;;;32.83;19.33;;;;;;;2.02;100.00;100265.53;5047023;28;20201;-78
2021/11/25 09:10:56;;;;;;;29.27;18.37;;;;;;;2.02;100.00;100260.38;5043093;28;20203;-78
2021/11/25 09:13:23;;;;;;;28.07;17.63;;;;;;;1.97;100.00;100262.94;5032127;28;20230;-78
2021/11/25 09:15:50;;;;;;;29.00;17.23;;;;;;;2.01;100.00;100267.25;5050163;28;20203;-77
2021/11/25 09:18:16;;;;;;;23.67;16.27;;;;;;;2.04;100.00;100261.22;5061126;28;20271;-77
2021/11/25 09:20:43;;;;;;;26.50;17.17;;;;;;;2.06;100.00;100255.25;5057325;28;20215;-77
2021/11/25 09:23:12;;;;;;;27.77;16.80;;;;;;;2.06;100.00;100247.53;5060757;28;20223;-77
2021/11/25 09:25:41;;;;;;;30.10;16.70;;;;;;;2.03;100.00;100244.97;5057416;28;20195;-77
2021/11/25 09:28:11;;;;;;;26.87;16.27;;;;;;;2.04;100.00;100241.53;5057176;28;20330;-78
2021/11/25 09:30:37;;;;;;;29.57;18.13;;;;;;;2.10;100.00;100245.00;5059153;28;20203;-77
2021/11/25 09:33:04;;;;;;;26.70;16.67;;;;;;;2.11;100.00;100242.41;5059727;28;20377;-77
2021/11/25 09:35:30;;;;;;;26.17;16.47;;;;;;;2.10;100.00;100242.41;5057559;28;20200;-76
2021/11/25 09:37:57;;;;;;;26.53;17.30;;;;;;;2.10;100.00;100240.69;5056094;28;20206;-76
2021/11/25 09:40:24;;;;;;;29.77;18.10;;;;;;;2.10;100.00;100239.84;5056077;28;20246;-76
2021/11/25 09:42:53;;;;;;;25.53;16.23;;;;;;;2.12;100.00;100241.56;5053626;28;20211;-76
2021/11/25 09:45:23;;;;;;;24.40;15.57;;;;;;;2.14;100.00;100237.25;5053871;28;20207;-76
2021/11/25 09:47:51;;;;;;;24.97;16.03;;;;;;;2.15;100.00;100240.72;5048402;28;20782;-76
2021/11/25 09:50:20;;;;;;;25.17;16.33;;;;;;;2.16;100.00;100240.69;5045091;28;20203;-76
2021/11/25 09:52:49;;;;;;;24.83;15.93;;;;;;;2.13;100.00;100238.13;5039314;28;20234;-76
2021/11/25 09:55:16;;;;;;;24.80;16.00;;;;;;;2.18;100.00;100235.56;5045105;28;20206;-76
2021/11/25 09:57:42;;;;;;;28.03;16.77;;;;;;;2.15;100.00;100233.00;5050905;28;20199;-76
2021/11/25 10:00:11;;;;;;;27.97;16.20;;;;;;;2.15;99.42;100233.00;5048807;28;20253;-76
2021/11/25 10:02:41;;;;;;;27.10;15.73;;;;;;;2.17;100.00;100233.84;5048276;28;20995;-76
2021/11/25 10:05:08;;;;;;;27.07;17.43;;;;;;;2.21;100.00;100226.13;5052826;28;20856;-77
2021/11/25 10:07:37;;;;;;;28.50;17.27;;;;;;;2.24;100.00;100218.41;5049520;28;20203;-76
2021/11/25 10:10:27;;;;;;;27.20;16.67;;;;;;;2.25;100.00;100209.84;5053157;28;20207;-77
2021/11/25 10:13:02;;;;;;;26.63;16.63;;;;;;;2.30;100.00;100206.41;5045409;28;20583;-76
2021/11/25 10:15:35;;;;;;;31.63;18.77;;;;;;;2.27;100.00;100218.44;5053624;28;20237;-76
2021/11/25 10:18:05;;;;;;;28.43;17.80;;;;;;;2.28;100.00;100203.84;5053866;28;20218;-76
2021/11/25 10:20:34;;;;;;;30.53;18.97;;;;;;;2.30;100.00;100193.56;5049207;28;20226;-76
2021/11/25 10:23:23;;;;;;;29.80;18.63;;;;;;;2.32;100.00;100194.41;5053390;28;20310;-76
2021/11/25 10:25:55;;;;;;;34.80;21.17;;;;;;;2.27;99.33;100199.56;5044881;28;20207;-76
2021/11/25 10:28:33;;;;;;;35.43;21.73;;;;;;;2.29;100.00;100195.28;5043196;28;20383;-76
2021/11/25 10:31:02;;;;;;;29.03;19.00;;;;;;;2.28;100.00;100191.81;5042305;28;20203;-76
2021/11/25 10:33:33;;;;;;;30.23;19.07;;;;;;;2.30;99.70;100189.25;5043441;28;20227;-76
2021/11/25 10:36:16;;;;;;;31.77;18.90;;;;;;;2.31;100.00;100180.69;5041763;28;20207;-76
2021/11/25 10:39:13;;;;;;;26.13;16.87;;;;;;;2.31;99.70;100177.28;5040002;28;20214;-77
2021/11/25 10:41:42;;;;;;;27.33;16.57;;;;;;;2.32;99.15;100181.53;5046126;28;20230;-76
2021/11/25 10:44:16;;;;;;;28.57;17.87;;;;;;;2.27;98.00;100173.84;5041336;28;20741;-76
2021/11/25 10:46:47;;;;;;;28.30;17.63;;;;;;;2.25;98.39;100173.84;5043350;28;20210;-76
2021/11/25 10:49:15;;;;;;;24.70;16.17;;;;;;;2.27;98.51;100179.00;5046489;28;20210;-75
2021/11/25 10:51:44;;;;;;;27.27;16.97;;;;;;;2.23;98.53;100182.41;5047513;28;20198;-76
2021/11/25 10:54:13;;;;;;;29.37;17.63;;;;;;;2.23;98.33;100178.13;5043228;28;20572;-77
2021/11/25 10:56:42;;;;;;;29.30;18.10;;;;;;;2.22;98.40;100175.56;5044372;28;20207;-76
2021/11/25 10:59:11;;;;;;;27.67;18.17;;;;;;;2.26;99.28;100169.53;5039470;28;20207;-76
2021/11/25 11:01:41;;;;;;;30.77;18.53;;;;;;;2.21;98.42;100160.97;5041305;28;20285;-76
2021/11/25 11:04:08;;;;;;;27.37;17.87;;;;;;;2.23;99.23;100175.56;5043208;28;20681;-76
2021/11/25 11:06:39;;;;;;;26.97;17.30;;;;;;;2.24;98.86;100169.53;5041553;28;20208;-75
2021/11/25 11:09:07;;;;;;;26.40;16.60;;;;;;;2.24;98.84;100173.84;5042482;28;20565;-76
2021/11/25 11:11:35;;;;;;;25.57;16.57;;;;;;;2.24;99.57;100169.53;5041799;28;20207;-76
2021/11/25 11:14:15;;;;;;;26.63;16.73;;;;;;;2.24;98.83;100166.97;5041350;28;20214;-76
2021/11/25 11:16:48;;;;;;;25.27;15.77;;;;;;;2.24;98.26;100154.09;5040881;28;20204;-76
2021/11/25 11:19:16;;;;;;;25.50;15.57;;;;;;;2.22;97.94;100160.97;5044893;28;20282;-75